sensor_id;sensor_type;location;lat;lon;timestamp;temperature;humidity
48579;DHT22;34357;51.948;6.132;2023-11-21T00:00:35;7.20;94.70
48579;DHT22;34357;51.948;6.132;2023-11-21T00:03:02;7.20;94.70
48579;DHT22;34357;51.948;6.132;2023-11-21T00:05:28;7.20;94.70
48579;DHT22;34357;51.948;6.132;2023-11-21T00:07:54;7.10;94.70
48579;DHT22;34357;51.948;6.132;2023-11-21T00:10:20;7.10;94.70
48579;DHT22;34357;51.948;6.132;2023-11-21T00:12:46;7.10;94.80
48579;DHT22;34357;51.948;6.132;2023-11-21T00:15:14;7.00;94.80
48579;DHT22;34357;51.948;6.132;2023-11-21T00:17:40;6.90;94.70
48579;DHT22;34357;51.948;6.132;2023-11-21T00:20:07;6.90;94.70
48579;DHT22;34357;51.948;6.132;2023-11-21T00:22:35;6.90;94.80
48579;DHT22;34357;51.948;6.132;2023-11-21T00:25:02;6.90;94.80
48579;DHT22;34357;51.948;6.132;2023-11-21T00:27:29;6.90;94.80
48579;DHT22;34357;51.948;6.132;2023-11-21T00:29:55;6.90;94.90
48579;DHT22;34357;51.948;6.132;2023-11-21T00:32:21;7.00;94.90
48579;DHT22;34357;51.948;6.132;2023-11-21T00:34:47;7.00;94.90
48579;DHT22;34357;51.948;6.132;2023-11-21T00:37:14;7.00;94.90
48579;DHT22;34357;51.948;6.132;2023-11-21T00:39:41;7.00;94.90
48579;DHT22;34357;51.948;6.132;2023-11-21T00:42:07;7.00;95.00
48579;DHT22;34357;51.948;6.132;2023-11-21T00:44:34;7.10;95.00
48579;DHT22;34357;51.948;6.132;2023-11-21T00:47:04;7.10;95.00
48579;DHT22;34357;51.948;6.132;2023-11-21T00:49:30;7.10;95.00
48579;DHT22;34357;51.948;6.132;2023-11-21T00:51:57;7.10;95.00
48579;DHT22;34357;51.948;6.132;2023-11-21T00:54:27;7.10;95.00
48579;DHT22;34357;51.948;6.132;2023-11-21T00:56:53;7.20;95.10
48579;DHT22;34357;51.948;6.132;2023-11-21T00:59:20;7.20;95.10
48579;DHT22;34357;51.948;6.132;2023-11-21T01:01:47;7.30;95.10
48579;DHT22;34357;51.948;6.132;2023-11-21T01:04:13;7.30;95.10
48579;DHT22;34357;51.948;6.132;2023-11-21T01:06:39;7.30;95.10
48579;DHT22;34357;51.948;6.132;2023-11-21T01:09:05;7.30;95.10
48579;DHT22;34357;51.948;6.132;2023-11-21T01:11:37;7.30;95.10
48579;DHT22;34357;51.948;6.132;2023-11-21T01:14:04;7.30;95.10
48579;DHT22;34357;51.948;6.132;2023-11-21T01:16:30;7.40;95.20
48579;DHT22;34357;51.948;6.132;2023-11-21T01:18:59;7.40;95.10
48579;DHT22;34357;51.948;6.132;2023-11-21T01:21:26;7.40;95.20
48579;DHT22;34357;51.948;6.132;2023-11-21T01:23:53;7.40;95.20
48579;DHT22;34357;51.948;6.132;2023-11-21T01:26:19;7.60;95.20
48579;DHT22;34357;51.948;6.132;2023-11-21T01:28:45;7.60;95.20
48579;DHT22;34357;51.948;6.132;2023-11-21T01:31:11;7.60;95.10
48579;DHT22;34357;51.948;6.132;2023-11-21T01:33:36;7.60;95.10
48579;DHT22;34357;51.948;6.132;2023-11-21T01:36:02;7.70;95.10
48579;DHT22;34357;51.948;6.132;2023-11-21T01:38:28;7.60;95.00
48579;DHT22;34357;51.948;6.132;2023-11-21T01:40:54;7.70;95.10
48579;DHT22;34357;51.948;6.132;2023-11-21T01:43:20;7.70;95.10
48579;DHT22;34357;51.948;6.132;2023-11-21T01:45:47;7.70;95.00
48579;DHT22;34357;51.948;6.132;2023-11-21T01:48:13;7.60;95.00
48579;DHT22;34357;51.948;6.132;2023-11-21T01:50:39;7.80;95.00
48579;DHT22;34357;51.948;6.132;2023-11-21T01:53:05;7.70;95.00
48579;DHT22;34357;51.948;6.132;2023-11-21T01:55:33;7.70;95.00
48579;DHT22;34357;51.948;6.132;2023-11-21T01:57:59;7.60;95.00
48579;DHT22;34357;51.948;6.132;2023-11-21T02:00:26;7.60;95.10
48579;DHT22;34357;51.948;6.132;2023-11-21T02:02:55;7.60;95.10
48579;DHT22;34357;51.948;6.132;2023-11-21T02:05:22;7.60;95.10
48579;DHT22;34357;51.948;6.132;2023-11-21T02:07:48;7.60;95.10
48579;DHT22;34357;51.948;6.132;2023-11-21T02:10:15;7.60;95.10
48579;DHT22;34357;51.948;6.132;2023-11-21T02:12:44;7.60;95.10
48579;DHT22;34357;51.948;6.132;2023-11-21T02:15:15;7.60;95.10
48579;DHT22;34357;51.948;6.132;2023-11-21T02:17:49;7.60;95.10
48579;DHT22;34357;51.948;6.132;2023-11-21T02:20:20;7.60;95.10
48579;DHT22;34357;51.948;6.132;2023-11-21T02:22:54;7.60;95.10
48579;DHT22;34357;51.948;6.132;2023-11-21T02:25:33;7.60;95.10
48579;DHT22;34357;51.948;6.132;2023-11-21T02:28:01;7.60;95.20
48579;DHT22;34357;51.948;6.132;2023-11-21T02:30:28;7.70;95.20
48579;DHT22;34357;51.948;6.132;2023-11-21T02:32:54;7.60;95.20
48579;DHT22;34357;51.948;6.132;2023-11-21T02:35:20;7.70;95.20
48579;DHT22;34357;51.948;6.132;2023-11-21T02:37:52;7.70;95.20
48579;DHT22;34357;51.948;6.132;2023-11-21T02:40:18;7.80;95.20
48579;DHT22;34357;51.948;6.132;2023-11-21T02:42:49;7.80;95.10
48579;DHT22;34357;51.948;6.132;2023-11-21T02:45:19;7.80;95.10
48579;DHT22;34357;51.948;6.132;2023-11-21T02:47:46;7.70;95.10
48579;DHT22;34357;51.948;6.132;2023-11-21T02:50:13;7.70;95.20
48579;DHT22;34357;51.948;6.132;2023-11-21T02:52:39;7.80;95.20
48579;DHT22;34357;51.948;6.132;2023-11-21T02:55:08;7.80;95.20
48579;DHT22;34357;51.948;6.132;2023-11-21T02:57:33;7.90;95.10
48579;DHT22;34357;51.948;6.132;2023-11-21T02:59:59;7.90;95.20
48579;DHT22;34357;51.948;6.132;2023-11-21T03:02:25;7.90;95.10
48579;DHT22;34357;51.948;6.132;2023-11-21T03:04:51;8.00;95.20
48579;DHT22;34357;51.948;6.132;2023-11-21T03:07:19;8.00;95.10
48579;DHT22;34357;51.948;6.132;2023-11-21T03:09:45;8.00;95.00
48579;DHT22;34357;51.948;6.132;2023-11-21T03:12:11;8.10;95.10
48579;DHT22;34357;51.948;6.132;2023-11-21T03:14:41;8.00;95.00
48579;DHT22;34357;51.948;6.132;2023-11-21T03:17:07;8.00;94.90
48579;DHT22;34357;51.948;6.132;2023-11-21T03:19:33;8.10;94.90
48579;DHT22;34357;51.948;6.132;2023-11-21T03:21:59;8.00;94.90
48579;DHT22;34357;51.948;6.132;2023-11-21T03:24:25;8.00;94.90
48579;DHT22;34357;51.948;6.132;2023-11-21T03:26:52;8.00;95.00
48579;DHT22;34357;51.948;6.132;2023-11-21T03:29:18;7.90;94.90
48579;DHT22;34357;51.948;6.132;2023-11-21T03:31:44;8.00;95.00
48579;DHT22;34357;51.948;6.132;2023-11-21T03:34:15;8.00;95.00
48579;DHT22;34357;51.948;6.132;2023-11-21T03:36:41;8.00;95.00
48579;DHT22;34357;51.948;6.132;2023-11-21T03:39:07;8.00;95.00
48579;DHT22;34357;51.948;6.132;2023-11-21T03:41:33;8.10;95.00
48579;DHT22;34357;51.948;6.132;2023-11-21T03:43:59;8.00;95.00
48579;DHT22;34357;51.948;6.132;2023-11-21T03:46:25;8.00;95.00
48579;DHT22;34357;51.948;6.132;2023-11-21T03:48:51;7.90;95.00
48579;DHT22;34357;51.948;6.132;2023-11-21T03:51:17;7.90;95.00
48579;DHT22;34357;51.948;6.132;2023-11-21T03:53:43;8.00;95.10
48579;DHT22;34357;51.948;6.132;2023-11-21T03:56:09;8.10;95.10
48579;DHT22;34357;51.948;6.132;2023-11-21T03:58:35;8.00;95.00
48579;DHT22;34357;51.948;6.132;2023-11-21T04:01:01;8.00;95.10
48579;DHT22;34357;51.948;6.132;2023-11-21T04:03:27;8.00;95.00
48579;DHT22;34357;51.948;6.132;2023-11-21T04:05:53;8.00;95.10
48579;DHT22;34357;51.948;6.132;2023-11-21T04:08:18;8.00;95.10
48579;DHT22;34357;51.948;6.132;2023-11-21T04:10:44;8.00;95.10
48579;DHT22;34357;51.948;6.132;2023-11-21T04:13:10;7.90;95.10
48579;DHT22;34357;51.948;6.132;2023-11-21T04:15:36;8.00;95.20
48579;DHT22;34357;51.948;6.132;2023-11-21T04:18:01;8.00;95.20
48579;DHT22;34357;51.948;6.132;2023-11-21T04:20:28;8.00;95.10
48579;DHT22;34357;51.948;6.132;2023-11-21T04:22:53;8.10;95.20
48579;DHT22;34357;51.948;6.132;2023-11-21T04:25:19;8.10;95.20
48579;DHT22;34357;51.948;6.132;2023-11-21T04:27:45;8.10;95.10
48579;DHT22;34357;51.948;6.132;2023-11-21T04:30:12;8.10;95.10
48579;DHT22;34357;51.948;6.132;2023-11-21T04:32:38;8.20;95.20
48579;DHT22;34357;51.948;6.132;2023-11-21T04:35:13;8.10;95.10
48579;DHT22;34357;51.948;6.132;2023-11-21T04:37:38;8.10;95.10
48579;DHT22;34357;51.948;6.132;2023-11-21T04:40:05;8.10;95.10
48579;DHT22;34357;51.948;6.132;2023-11-21T04:42:36;8.10;95.10
48579;DHT22;34357;51.948;6.132;2023-11-21T04:45:04;8.10;95.20
48579;DHT22;34357;51.948;6.132;2023-11-21T04:47:34;8.00;95.10
48579;DHT22;34357;51.948;6.132;2023-11-21T04:49:59;8.10;95.20
48579;DHT22;34357;51.948;6.132;2023-11-21T04:52:25;8.00;95.10
48579;DHT22;34357;51.948;6.132;2023-11-21T04:54:51;8.10;95.20
48579;DHT22;34357;51.948;6.132;2023-11-21T04:57:17;8.10;95.20
48579;DHT22;34357;51.948;6.132;2023-11-21T04:59:44;8.10;95.20
48579;DHT22;34357;51.948;6.132;2023-11-21T05:02:10;8.00;95.20
48579;DHT22;34357;51.948;6.132;2023-11-21T05:04:38;8.10;95.20
48579;DHT22;34357;51.948;6.132;2023-11-21T05:07:03;8.10;95.20
48579;DHT22;34357;51.948;6.132;2023-11-21T05:09:29;8.10;95.20
48579;DHT22;34357;51.948;6.132;2023-11-21T05:11:57;8.10;95.30
48579;DHT22;34357;51.948;6.132;2023-11-21T05:14:23;8.20;95.30
48579;DHT22;34357;51.948;6.132;2023-11-21T05:16:49;8.10;95.30
48579;DHT22;34357;51.948;6.132;2023-11-21T05:19:16;8.10;95.20
48579;DHT22;34357;51.948;6.132;2023-11-21T05:21:42;8.20;95.20
48579;DHT22;34357;51.948;6.132;2023-11-21T05:24:08;8.20;95.30
48579;DHT22;34357;51.948;6.132;2023-11-21T05:26:35;8.20;95.30
48579;DHT22;34357;51.948;6.132;2023-11-21T05:29:01;8.10;95.20
48579;DHT22;34357;51.948;6.132;2023-11-21T05:31:26;8.20;95.30
48579;DHT22;34357;51.948;6.132;2023-11-21T05:33:53;8.20;95.20
48579;DHT22;34357;51.948;6.132;2023-11-21T05:36:19;8.20;95.30
48579;DHT22;34357;51.948;6.132;2023-11-21T05:38:44;8.20;95.20
48579;DHT22;34357;51.948;6.132;2023-11-21T05:41:11;8.20;95.20
48579;DHT22;34357;51.948;6.132;2023-11-21T05:43:39;8.20;95.30
48579;DHT22;34357;51.948;6.132;2023-11-21T05:46:05;8.20;95.20
48579;DHT22;34357;51.948;6.132;2023-11-21T05:48:32;8.10;95.20
48579;DHT22;34357;51.948;6.132;2023-11-21T05:50:58;8.20;95.30
48579;DHT22;34357;51.948;6.132;2023-11-21T05:53:24;8.10;95.30
48579;DHT22;34357;51.948;6.132;2023-11-21T05:55:50;8.10;95.30
48579;DHT22;34357;51.948;6.132;2023-11-21T05:58:16;8.10;95.30
48579;DHT22;34357;51.948;6.132;2023-11-21T06:00:42;8.10;95.30
48579;DHT22;34357;51.948;6.132;2023-11-21T06:03:07;8.10;95.40
48579;DHT22;34357;51.948;6.132;2023-11-21T06:05:33;8.10;95.30
48579;DHT22;34357;51.948;6.132;2023-11-21T06:07:59;8.20;95.30
48579;DHT22;34357;51.948;6.132;2023-11-21T06:10:26;8.20;95.30
48579;DHT22;34357;51.948;6.132;2023-11-21T06:12:53;8.10;95.20
48579;DHT22;34357;51.948;6.132;2023-11-21T06:15:19;8.20;95.30
48579;DHT22;34357;51.948;6.132;2023-11-21T06:17:47;8.20;95.30
48579;DHT22;34357;51.948;6.132;2023-11-21T06:20:18;8.10;95.30
48579;DHT22;34357;51.948;6.132;2023-11-21T06:22:45;8.10;95.40
48579;DHT22;34357;51.948;6.132;2023-11-21T06:25:12;8.20;95.30
48579;DHT22;34357;51.948;6.132;2023-11-21T06:30:06;8.20;95.30
48579;DHT22;34357;51.948;6.132;2023-11-21T06:32:34;8.10;95.30
48579;DHT22;34357;51.948;6.132;2023-11-21T06:35:02;8.10;95.40
48579;DHT22;34357;51.948;6.132;2023-11-21T06:37:30;8.10;95.30
48579;DHT22;34357;51.948;6.132;2023-11-21T06:39:56;8.10;95.30
48579;DHT22;34357;51.948;6.132;2023-11-21T06:42:24;8.10;95.30
48579;DHT22;34357;51.948;6.132;2023-11-21T06:44:50;8.10;95.30
48579;DHT22;34357;51.948;6.132;2023-11-21T06:47:20;8.10;95.30
48579;DHT22;34357;51.948;6.132;2023-11-21T06:49:46;8.10;95.30
48579;DHT22;34357;51.948;6.132;2023-11-21T06:52:14;8.10;95.30
48579;DHT22;34357;51.948;6.132;2023-11-21T06:54:40;8.10;95.30
48579;DHT22;34357;51.948;6.132;2023-11-21T06:57:06;8.10;95.40
48579;DHT22;34357;51.948;6.132;2023-11-21T06:59:33;8.10;95.30
48579;DHT22;34357;51.948;6.132;2023-11-21T07:01:59;8.10;95.40
48579;DHT22;34357;51.948;6.132;2023-11-21T07:04:25;8.10;95.30
48579;DHT22;34357;51.948;6.132;2023-11-21T07:06:54;8.00;95.40
48579;DHT22;34357;51.948;6.132;2023-11-21T07:09:20;8.00;95.40
48579;DHT22;34357;51.948;6.132;2023-11-21T07:11:49;8.10;95.40
48579;DHT22;34357;51.948;6.132;2023-11-21T07:14:15;8.00;95.40
48579;DHT22;34357;51.948;6.132;2023-11-21T07:16:42;8.00;95.40
48579;DHT22;34357;51.948;6.132;2023-11-21T07:19:08;8.00;95.40
48579;DHT22;34357;51.948;6.132;2023-11-21T07:21:35;8.00;95.40
48579;DHT22;34357;51.948;6.132;2023-11-21T07:24:02;8.10;95.50
48579;DHT22;34357;51.948;6.132;2023-11-21T07:26:28;8.10;95.40
48579;DHT22;34357;51.948;6.132;2023-11-21T07:28:54;8.20;95.40
48579;DHT22;34357;51.948;6.132;2023-11-21T07:31:20;8.10;95.40
48579;DHT22;34357;51.948;6.132;2023-11-21T07:33:47;8.00;95.40
48579;DHT22;34357;51.948;6.132;2023-11-21T07:36:14;8.00;95.40
48579;DHT22;34357;51.948;6.132;2023-11-21T07:38:40;8.10;95.50
48579;DHT22;34357;51.948;6.132;2023-11-21T07:41:06;8.00;95.40
48579;DHT22;34357;51.948;6.132;2023-11-21T07:43:34;8.00;95.40
48579;DHT22;34357;51.948;6.132;2023-11-21T07:46:04;8.10;95.50
48579;DHT22;34357;51.948;6.132;2023-11-21T07:48:30;8.10;95.40
48579;DHT22;34357;51.948;6.132;2023-11-21T07:50:57;8.10;95.40
48579;DHT22;34357;51.948;6.132;2023-11-21T07:53:24;8.10;95.50
48579;DHT22;34357;51.948;6.132;2023-11-21T07:55:57;8.10;95.40
48579;DHT22;34357;51.948;6.132;2023-11-21T07:58:23;8.10;95.40
48579;DHT22;34357;51.948;6.132;2023-11-21T08:00:49;8.10;95.40
48579;DHT22;34357;51.948;6.132;2023-11-21T08:03:16;8.00;95.40
48579;DHT22;34357;51.948;6.132;2023-11-21T08:05:44;8.10;95.50
48579;DHT22;34357;51.948;6.132;2023-11-21T08:08:10;8.10;95.50
48579;DHT22;34357;51.948;6.132;2023-11-21T08:10:36;8.10;95.50
48579;DHT22;34357;51.948;6.132;2023-11-21T08:13:03;8.00;95.50
48579;DHT22;34357;51.948;6.132;2023-11-21T08:15:29;8.10;95.50
48579;DHT22;34357;51.948;6.132;2023-11-21T08:17:57;8.10;95.50
48579;DHT22;34357;51.948;6.132;2023-11-21T08:20:24;8.20;95.50
48579;DHT22;34357;51.948;6.132;2023-11-21T08:22:50;8.10;95.50
48579;DHT22;34357;51.948;6.132;2023-11-21T08:25:18;8.10;95.50
48579;DHT22;34357;51.948;6.132;2023-11-21T08:27:46;8.20;95.50
48579;DHT22;34357;51.948;6.132;2023-11-21T08:30:12;8.20;95.50
48579;DHT22;34357;51.948;6.132;2023-11-21T08:32:39;8.20;95.50
48579;DHT22;34357;51.948;6.132;2023-11-21T08:35:08;8.20;95.50
48579;DHT22;34357;51.948;6.132;2023-11-21T08:37:34;8.30;95.60
48579;DHT22;34357;51.948;6.132;2023-11-21T08:40:04;8.40;95.50
48579;DHT22;34357;51.948;6.132;2023-11-21T08:42:35;8.40;95.50
48579;DHT22;34357;51.948;6.132;2023-11-21T08:45:01;8.30;95.50
48579;DHT22;34357;51.948;6.132;2023-11-21T08:47:27;8.30;95.50
48579;DHT22;34357;51.948;6.132;2023-11-21T08:49:53;8.40;95.50
48579;DHT22;34357;51.948;6.132;2023-11-21T08:52:19;8.50;95.50
48579;DHT22;34357;51.948;6.132;2023-11-21T08:54:51;8.50;95.40
48579;DHT22;34357;51.948;6.132;2023-11-21T08:57:24;8.60;95.40
48579;DHT22;34357;51.948;6.132;2023-11-21T08:59:50;8.50;95.30
48579;DHT22;34357;51.948;6.132;2023-11-21T09:02:26;8.50;95.20
48579;DHT22;34357;51.948;6.132;2023-11-21T09:04:52;8.50;95.30
48579;DHT22;34357;51.948;6.132;2023-11-21T09:07:19;8.50;95.30
48579;DHT22;34357;51.948;6.132;2023-11-21T09:09:50;8.50;95.20
48579;DHT22;34357;51.948;6.132;2023-11-21T09:12:16;8.60;95.30
48579;DHT22;34357;51.948;6.132;2023-11-21T09:14:44;8.60;95.20
48579;DHT22;34357;51.948;6.132;2023-11-21T09:17:10;8.60;95.20
48579;DHT22;34357;51.948;6.132;2023-11-21T09:19:40;8.60;95.30
48579;DHT22;34357;51.948;6.132;2023-11-21T09:22:06;8.70;95.30
48579;DHT22;34357;51.948;6.132;2023-11-21T09:24:33;8.80;95.20
48579;DHT22;34357;51.948;6.132;2023-11-21T09:26:59;8.90;95.20
48579;DHT22;34357;51.948;6.132;2023-11-21T09:29:26;8.90;95.10
48579;DHT22;34357;51.948;6.132;2023-11-21T09:31:52;9.00;95.20
48579;DHT22;34357;51.948;6.132;2023-11-21T09:34:21;8.90;95.10
48579;DHT22;34357;51.948;6.132;2023-11-21T09:36:47;9.00;95.10
48579;DHT22;34357;51.948;6.132;2023-11-21T09:39:13;9.00;95.10
48579;DHT22;34357;51.948;6.132;2023-11-21T09:41:51;8.90;95.10
48579;DHT22;34357;51.948;6.132;2023-11-21T09:44:18;8.90;95.10
48579;DHT22;34357;51.948;6.132;2023-11-21T09:46:48;8.90;95.10
48579;DHT22;34357;51.948;6.132;2023-11-21T09:49:15;8.90;95.10
48579;DHT22;34357;51.948;6.132;2023-11-21T09:51:47;8.90;95.00
48579;DHT22;34357;51.948;6.132;2023-11-21T09:54:13;8.90;95.00
48579;DHT22;34357;51.948;6.132;2023-11-21T09:56:41;8.90;95.00
48579;DHT22;34357;51.948;6.132;2023-11-21T09:59:13;9.00;95.00
48579;DHT22;34357;51.948;6.132;2023-11-21T10:01:39;9.00;95.00
48579;DHT22;34357;51.948;6.132;2023-11-21T10:04:06;9.10;95.00
48579;DHT22;34357;51.948;6.132;2023-11-21T10:06:40;9.20;95.10
48579;DHT22;34357;51.948;6.132;2023-11-21T10:09:10;9.30;95.10
48579;DHT22;34357;51.948;6.132;2023-11-21T10:11:41;9.30;95.00
48579;DHT22;34357;51.948;6.132;2023-11-21T10:14:10;9.30;95.00
48579;DHT22;34357;51.948;6.132;2023-11-21T10:16:38;9.30;95.00
48579;DHT22;34357;51.948;6.132;2023-11-21T10:19:05;9.40;95.00
48579;DHT22;34357;51.948;6.132;2023-11-21T10:21:35;9.30;94.90
48579;DHT22;34357;51.948;6.132;2023-11-21T10:24:01;9.40;94.90
48579;DHT22;34357;51.948;6.132;2023-11-21T10:26:30;9.30;94.90
48579;DHT22;34357;51.948;6.132;2023-11-21T10:28:58;9.30;94.90
48579;DHT22;34357;51.948;6.132;2023-11-21T10:31:26;9.40;95.00
48579;DHT22;34357;51.948;6.132;2023-11-21T10:33:52;9.50;94.90
48579;DHT22;34357;51.948;6.132;2023-11-21T10:36:28;9.50;94.80
48579;DHT22;34357;51.948;6.132;2023-11-21T10:38:54;9.60;94.90
48579;DHT22;34357;51.948;6.132;2023-11-21T10:41:20;9.60;94.70
48579;DHT22;34357;51.948;6.132;2023-11-21T10:43:47;9.60;94.70
48579;DHT22;34357;51.948;6.132;2023-11-21T10:46:14;9.80;94.80
48579;DHT22;34357;51.948;6.132;2023-11-21T10:48:42;10.00;94.80
48579;DHT22;34357;51.948;6.132;2023-11-21T10:51:08;10.00;94.60
48579;DHT22;34357;51.948;6.132;2023-11-21T10:53:43;9.90;94.60
48579;DHT22;34357;51.948;6.132;2023-11-21T10:56:14;9.90;94.60
48579;DHT22;34357;51.948;6.132;2023-11-21T10:58:43;9.90;94.50
48579;DHT22;34357;51.948;6.132;2023-11-21T11:01:09;9.90;94.40
48579;DHT22;34357;51.948;6.132;2023-11-21T11:03:40;10.00;94.40
48579;DHT22;34357;51.948;6.132;2023-11-21T11:06:07;10.00;94.30
48579;DHT22;34357;51.948;6.132;2023-11-21T11:08:40;9.90;94.30
48579;DHT22;34357;51.948;6.132;2023-11-21T11:11:06;10.00;94.30
48579;DHT22;34357;51.948;6.132;2023-11-21T11:13:32;10.00;94.30
48579;DHT22;34357;51.948;6.132;2023-11-21T11:16:00;10.10;94.20
48579;DHT22;34357;51.948;6.132;2023-11-21T11:18:30;10.10;94.20
48579;DHT22;34357;51.948;6.132;2023-11-21T11:21:35;10.00;94.10
48579;DHT22;34357;51.948;6.132;2023-11-21T11:32:46;10.00;94.20
48579;DHT22;34357;51.948;6.132;2023-11-21T11:35:33;10.00;94.30
48579;DHT22;34357;51.948;6.132;2023-11-21T11:38:01;10.00;94.20
48579;DHT22;34357;51.948;6.132;2023-11-21T11:40:39;9.90;94.20
48579;DHT22;34357;51.948;6.132;2023-11-21T11:43:06;9.90;94.30
48579;DHT22;34357;51.948;6.132;2023-11-21T11:45:33;9.90;94.30
48579;DHT22;34357;51.948;6.132;2023-11-21T11:48:01;9.90;94.30
48579;DHT22;34357;51.948;6.132;2023-11-21T11:50:27;9.90;94.40
48579;DHT22;34357;51.948;6.132;2023-11-21T11:52:54;9.80;94.40
48579;DHT22;34357;51.948;6.132;2023-11-21T11:55:21;9.80;94.40
48579;DHT22;34357;51.948;6.132;2023-11-21T11:57:52;9.90;94.50
48579;DHT22;34357;51.948;6.132;2023-11-21T12:00:44;9.90;94.60
48579;DHT22;34357;51.948;6.132;2023-11-21T12:03:10;9.80;94.50
48579;DHT22;34357;51.948;6.132;2023-11-21T12:05:36;9.80;94.60
48579;DHT22;34357;51.948;6.132;2023-11-21T12:08:06;9.80;94.60
48579;DHT22;34357;51.948;6.132;2023-11-21T12:10:33;9.80;94.60
48579;DHT22;34357;51.948;6.132;2023-11-21T12:13:01;9.70;94.60
48579;DHT22;34357;51.948;6.132;2023-11-21T12:15:27;9.80;94.60
48579;DHT22;34357;51.948;6.132;2023-11-21T12:17:56;9.80;94.60
48579;DHT22;34357;51.948;6.132;2023-11-21T12:20:23;9.80;94.60
48579;DHT22;34357;51.948;6.132;2023-11-21T12:22:53;9.80;94.60
48579;DHT22;34357;51.948;6.132;2023-11-21T12:25:23;9.80;94.60
48579;DHT22;34357;51.948;6.132;2023-11-21T12:27:50;9.70;94.50
48579;DHT22;34357;51.948;6.132;2023-11-21T12:30:19;9.80;94.60
48579;DHT22;34357;51.948;6.132;2023-11-21T12:32:48;9.80;94.50
48579;DHT22;34357;51.948;6.132;2023-11-21T12:35:14;9.80;94.50
48579;DHT22;34357;51.948;6.132;2023-11-21T12:37:41;9.70;94.50
48579;DHT22;34357;51.948;6.132;2023-11-21T12:40:09;9.70;94.60
48579;DHT22;34357;51.948;6.132;2023-11-21T12:42:45;9.70;94.60
48579;DHT22;34357;51.948;6.132;2023-11-21T12:47:42;9.60;94.60
48579;DHT22;34357;51.948;6.132;2023-11-21T12:50:08;9.70;94.60
48579;DHT22;34357;51.948;6.132;2023-11-21T12:52:44;9.70;94.60
48579;DHT22;34357;51.948;6.132;2023-11-21T12:55:22;9.70;94.60
48579;DHT22;34357;51.948;6.132;2023-11-21T12:57:55;9.80;94.70
48579;DHT22;34357;51.948;6.132;2023-11-21T13:00:38;9.80;94.60
48579;DHT22;34357;51.948;6.132;2023-11-21T13:03:06;9.80;94.60
48579;DHT22;34357;51.948;6.132;2023-11-21T13:05:39;9.70;94.50
48579;DHT22;34357;51.948;6.132;2023-11-21T13:08:08;9.70;94.50
48579;DHT22;34357;51.948;6.132;2023-11-21T13:10:36;9.60;94.50
48579;DHT22;34357;51.948;6.132;2023-11-21T13:13:04;9.70;94.50
48579;DHT22;34357;51.948;6.132;2023-11-21T13:15:31;9.70;94.30
48579;DHT22;34357;51.948;6.132;2023-11-21T13:17:58;9.80;94.40
48579;DHT22;34357;51.948;6.132;2023-11-21T13:20:28;9.80;94.30
48579;DHT22;34357;51.948;6.132;2023-11-21T13:22:57;9.80;94.20
48579;DHT22;34357;51.948;6.132;2023-11-21T13:25:28;9.80;94.20
48579;DHT22;34357;51.948;6.132;2023-11-21T13:28:02;9.70;94.10
48579;DHT22;34357;51.948;6.132;2023-11-21T13:30:30;9.70;94.10
48579;DHT22;34357;51.948;6.132;2023-11-21T13:32:59;9.80;94.10
48579;DHT22;34357;51.948;6.132;2023-11-21T13:35:32;9.90;94.10
48579;DHT22;34357;51.948;6.132;2023-11-21T13:38:04;9.90;94.00
48579;DHT22;34357;51.948;6.132;2023-11-21T13:40:32;10.00;94.00
48579;DHT22;34357;51.948;6.132;2023-11-21T13:43:00;10.00;93.80
48579;DHT22;34357;51.948;6.132;2023-11-21T13:45:30;9.90;93.80
48579;DHT22;34357;51.948;6.132;2023-11-21T13:47:56;9.90;93.70
48579;DHT22;34357;51.948;6.132;2023-11-21T13:50:25;9.80;93.50
48579;DHT22;34357;51.948;6.132;2023-11-21T13:53:02;9.80;93.60
48579;DHT22;34357;51.948;6.132;2023-11-21T13:55:44;9.70;93.50
48579;DHT22;34357;51.948;6.132;2023-11-21T13:58:11;9.70;93.50
48579;DHT22;34357;51.948;6.132;2023-11-21T14:00:43;9.70;93.50
48579;DHT22;34357;51.948;6.132;2023-11-21T14:03:12;9.60;93.50
48579;DHT22;34357;51.948;6.132;2023-11-21T14:05:47;9.50;93.50
48579;DHT22;34357;51.948;6.132;2023-11-21T14:08:18;9.40;93.60
48579;DHT22;34357;51.948;6.132;2023-11-21T14:10:46;9.40;93.70
48579;DHT22;34357;51.948;6.132;2023-11-21T14:13:17;9.40;93.80
48579;DHT22;34357;51.948;6.132;2023-11-21T14:15:43;9.40;93.90
48579;DHT22;34357;51.948;6.132;2023-11-21T14:18:16;9.40;93.90
48579;DHT22;34357;51.948;6.132;2023-11-21T14:20:43;9.40;94.00
48579;DHT22;34357;51.948;6.132;2023-11-21T14:23:10;9.30;93.90
48579;DHT22;34357;51.948;6.132;2023-11-21T14:25:36;9.20;93.90
48579;DHT22;34357;51.948;6.132;2023-11-21T14:28:03;9.20;94.00
48579;DHT22;34357;51.948;6.132;2023-11-21T14:30:30;9.20;94.00
48579;DHT22;34357;51.948;6.132;2023-11-21T14:32:58;9.20;94.10
48579;DHT22;34357;51.948;6.132;2023-11-21T14:35:24;9.10;94.10
48579;DHT22;34357;51.948;6.132;2023-11-21T14:37:52;9.10;94.10
48579;DHT22;34357;51.948;6.132;2023-11-21T14:40:18;9.10;94.10
48579;DHT22;34357;51.948;6.132;2023-11-21T14:42:50;9.10;94.10
48579;DHT22;34357;51.948;6.132;2023-11-21T14:45:19;9.10;94.00
48579;DHT22;34357;51.948;6.132;2023-11-21T14:47:46;9.20;94.10
48579;DHT22;34357;51.948;6.132;2023-11-21T14:50:21;9.20;94.00
48579;DHT22;34357;51.948;6.132;2023-11-21T14:53:06;9.20;94.00
48579;DHT22;34357;51.948;6.132;2023-11-21T14:55:33;9.20;93.90
48579;DHT22;34357;51.948;6.132;2023-11-21T14:58:07;9.10;93.80
48579;DHT22;34357;51.948;6.132;2023-11-21T15:00:39;9.10;93.80
48579;DHT22;34357;51.948;6.132;2023-11-21T15:03:10;9.10;93.70
48579;DHT22;34357;51.948;6.132;2023-11-21T15:05:47;9.00;93.50
48579;DHT22;34357;51.948;6.132;2023-11-21T15:08:14;9.00;93.40
48579;DHT22;34357;51.948;6.132;2023-11-21T15:10:49;8.90;93.30
48579;DHT22;34357;51.948;6.132;2023-11-21T15:13:19;8.90;93.30
48579;DHT22;34357;51.948;6.132;2023-11-21T15:15:46;8.80;93.00
48579;DHT22;34357;51.948;6.132;2023-11-21T15:18:12;8.80;92.90
48579;DHT22;34357;51.948;6.132;2023-11-21T15:20:39;8.70;92.90
48579;DHT22;34357;51.948;6.132;2023-11-21T15:23:05;8.60;92.70
48579;DHT22;34357;51.948;6.132;2023-11-21T15:25:32;8.50;92.60
48579;DHT22;34357;51.948;6.132;2023-11-21T15:27:57;8.50;92.40
48579;DHT22;34357;51.948;6.132;2023-11-21T15:30:23;8.50;92.20
48579;DHT22;34357;51.948;6.132;2023-11-21T15:32:53;8.50;92.10
48579;DHT22;34357;51.948;6.132;2023-11-21T15:35:20;8.40;91.80
48579;DHT22;34357;51.948;6.132;2023-11-21T15:37:46;8.40;91.70
48579;DHT22;34357;51.948;6.132;2023-11-21T15:40:12;8.30;91.50
48579;DHT22;34357;51.948;6.132;2023-11-21T15:42:40;8.40;91.40
48579;DHT22;34357;51.948;6.132;2023-11-21T15:45:06;8.40;91.50
48579;DHT22;34357;51.948;6.132;2023-11-21T15:47:36;8.30;91.40
48579;DHT22;34357;51.948;6.132;2023-11-21T15:50:02;8.30;91.50
48579;DHT22;34357;51.948;6.132;2023-11-21T15:52:29;8.30;91.40
48579;DHT22;34357;51.948;6.132;2023-11-21T15:54:55;8.30;91.30
48579;DHT22;34357;51.948;6.132;2023-11-21T15:57:21;8.30;91.40
48579;DHT22;34357;51.948;6.132;2023-11-21T15:59:47;8.30;91.50
48579;DHT22;34357;51.948;6.132;2023-11-21T16:02:13;8.30;91.60